Time;durP1;ratioP1;P1;durP2;ratioP2;P2;SDS_P1;SDS_P2;PMS_P1;PMS_P2;Temp;Humidity;BMP_temperature;BMP_pressure;BME280_temperature;BME280_humidity;BME280_pressure;Samples;Min_cycle;Max_cycle;Signal;HPM_P1;HPM_P2
2022/09/06 00:00:06;;;;;;;9.50;5.82;;;20.60;99.40;;;;;;4976890;28;20054;-75
2022/09/06 00:02:32;;;;;;;8.90;6.20;;;20.60;99.40;;;;;;5017630;28;20102;-75
2022/09/06 00:04:58;;;;;;;9.27;6.25;;;20.60;99.50;;;;;;5015577;28;20498;-75
2022/09/06 00:07:24;;;;;;;8.73;6.28;;;20.60;99.50;;;;;;4977429;28;20072;-75
2022/09/06 00:09:49;;;;;;;7.60;6.00;;;20.50;99.60;;;;;;4981905;28;20051;-75
2022/09/06 00:12:15;;;;;;;6.93;6.05;;;20.50;99.80;;;;;;4995261;28;20486;-75
2022/09/06 00:14:41;;;;;;;7.97;6.25;;;20.40;99.80;;;;;;5019798;28;20054;-75
2022/09/06 00:17:07;;;;;;;10.23;6.50;;;20.40;99.90;;;;;;5012832;28;20299;-74
2022/09/06 00:19:32;;;;;;;9.90;6.75;;;20.20;99.90;;;;;;5021825;28;20058;-75
2022/09/06 00:21:58;;;;;;;8.48;6.32;;;20.10;99.90;;;;;;5025337;28;20042;-74
2022/09/06 00:24:24;;;;;;;9.30;7.03;;;20.00;99.90;;;;;;5000780;28;20054;-75
2022/09/06 00:26:49;;;;;;;7.35;6.40;;;19.90;99.90;;;;;;5013705;28;20050;-75
2022/09/06 00:29:15;;;;;;;8.90;6.72;;;19.90;99.90;;;;;;5006527;28;20046;-75
2022/09/06 00:31:41;;;;;;;10.25;6.95;;;19.80;99.90;;;;;;5006234;28;20093;-75
2022/09/06 00:34:06;;;;;;;7.85;6.63;;;19.90;99.90;;;;;;4997227;28;20051;-75
2022/09/06 00:36:32;;;;;;;11.18;6.55;;;19.90;99.90;;;;;;4990399;28;20078;-75
2022/09/06 00:38:58;;;;;;;8.10;6.95;;;19.90;99.90;;;;;;4969064;28;20648;-75
2022/09/06 00:41:24;;;;;;;7.80;6.75;;;19.90;99.90;;;;;;4989780;28;20082;-75
2022/09/06 00:43:49;;;;;;;9.73;6.78;;;19.90;99.90;;;;;;5007479;28;20046;-75
2022/09/06 00:46:21;;;;;;;8.30;6.65;;;19.90;99.90;;;;;;4984248;28;20050;-75
2022/09/06 00:48:51;;;;;;;7.20;6.47;;;19.80;99.90;;;;;;4994499;28;20049;-75
2022/09/06 00:51:19;;;;;;;10.52;7.38;;;19.90;99.90;;;;;;5021895;28;20138;-75
2022/09/06 00:53:45;;;;;;;8.45;7.43;;;19.90;99.90;;;;;;4987408;28;20058;-75
2022/09/06 00:56:12;;;;;;;11.23;7.40;;;19.90;99.90;;;;;;4984760;28;20105;-75
2022/09/06 00:58:38;;;;;;;11.63;7.15;;;19.80;99.90;;;;;;4983703;28;20066;-75
2022/09/06 01:01:04;;;;;;;8.40;7.15;;;19.80;99.90;;;;;;4988390;28;20039;-75
2022/09/06 01:03:30;;;;;;;8.88;7.63;;;19.80;99.90;;;;;;4993988;28;20529;-75
2022/09/06 01:06:48;;;;;;;10.80;7.57;;;19.70;99.90;;;;;;5022483;28;20054;-74
2022/09/06 01:09:28;;;;;;;8.18;7.38;;;19.70;99.90;;;;;;4932322;29;20063;-75
2022/09/06 01:12:09;;;;;;;10.27;6.80;;;19.60;99.90;;;;;;4930497;29;20151;-75
2022/09/06 01:14:54;;;;;;;10.98;7.95;;;19.60;99.90;;;;;;4929940;29;20127;-75
2022/09/06 01:17:44;;;;;;;8.02;7.03;;;19.60;99.90;;;;;;4963077;28;20059;-74
2022/09/06 01:20:26;;;;;;;10.65;7.45;;;19.60;99.90;;;;;;4963583;28;20086;-75
2022/09/06 01:23:24;;;;;;;8.68;7.68;;;19.60;99.90;;;;;;4931954;29;20058;-74
2022/09/06 01:26:04;;;;;;;8.38;7.15;;;19.60;99.90;;;;;;4960160;28;20071;-75
2022/09/06 01:28:36;;;;;;;9.02;7.32;;;19.60;99.90;;;;;;4961921;28;20111;-75
2022/09/06 01:31:26;;;;;;;8.48;7.65;;;19.50;99.90;;;;;;4942412;28;20078;-75
2022/09/06 01:34:07;;;;;;;9.80;7.00;;;19.40;99.90;;;;;;4969294;28;20075;-75
2022/09/06 01:36:45;;;;;;;8.90;7.57;;;19.30;99.90;;;;;;4950334;29;20047;-75
2022/09/06 01:39:22;;;;;;;9.75;7.32;;;19.30;99.90;;;;;;4947677;28;20107;-74
2022/09/06 01:41:49;;;;;;;10.57;7.60;;;19.20;99.90;;;;;;4984435;28;20447;-75
2022/09/06 01:44:15;;;;;;;13.02;7.78;;;19.20;99.90;;;;;;4975435;28;20050;-75
2022/09/06 01:47:01;;;;;;;8.82;7.82;;;19.30;99.90;;;;;;5000147;28;20046;-75
2022/09/06 01:49:36;;;;;;;8.75;7.13;;;19.30;99.90;;;;;;5013109;28;20050;-75
2022/09/06 01:52:17;;;;;;;9.40;8.02;;;19.30;99.90;;;;;;5005914;28;20094;-75
2022/09/06 01:54:55;;;;;;;9.25;8.35;;;19.30;99.90;;;;;;5000656;28;20046;-75
2022/09/06 01:57:30;;;;;;;9.18;7.25;;;19.30;99.90;;;;;;4999644;28;20050;-75
2022/09/06 02:00:10;;;;;;;8.70;7.70;;;19.20;99.90;;;;;;5005610;28;20054;-75
2022/09/06 02:03:01;;;;;;;9.32;7.78;;;19.10;99.90;;;;;;5001845;28;20101;-75
2022/09/06 02:05:40;;;;;;;8.73;7.88;;;19.10;99.90;;;;;;5006524;28;20093;-74
2022/09/06 02:08:16;;;;;;;9.18;7.97;;;19.10;99.90;;;;;;5006670;28;20046;-75
2022/09/06 02:10:49;;;;;;;12.15;8.82;;;19.10;99.90;;;;;;5004934;28;20046;-74
2022/09/06 02:13:18;;;;;;;9.57;8.40;;;19.10;99.90;;;;;;5002363;28;20561;-75
2022/09/06 02:15:52;;;;;;;10.98;7.97;;;19.10;99.90;;;;;;5007390;28;20049;-75
2022/09/06 02:18:26;;;;;;;8.63;7.82;;;19.10;99.90;;;;;;5001596;28;20050;-75
2022/09/06 02:20:56;;;;;;;10.98;8.30;;;19.10;99.90;;;;;;5006868;28;20046;-74
2022/09/06 02:23:27;;;;;;;10.73;7.95;;;19.10;99.90;;;;;;5005005;28;20049;-75
2022/09/06 02:26:00;;;;;;;13.02;8.00;;;19.00;99.90;;;;;;5020222;28;20046;-75
2022/09/06 02:28:25;;;;;;;8.65;7.85;;;19.00;99.90;;;;;;5003735;28;20046;-75
2022/09/06 02:30:57;;;;;;;9.05;7.97;;;19.10;99.90;;;;;;4998596;28;20054;-74
2022/09/06 02:33:27;;;;;;;9.95;7.85;;;19.00;99.90;;;;;;4990443;28;20532;-75
2022/09/06 02:35:54;;;;;;;14.55;8.43;;;18.90;99.90;;;;;;5026902;28;20050;-75
2022/09/06 02:38:25;;;;;;;11.43;8.07;;;18.80;99.90;;;;;;4994476;28;20050;-74
2022/09/06 02:40:53;;;;;;;9.80;8.52;;;18.70;99.90;;;;;;5039951;28;20123;-75
2022/09/06 02:43:20;;;;;;;10.25;8.07;;;18.60;99.90;;;;;;5007130;28;20504;-75
2022/09/06 02:45:45;;;;;;;9.00;8.10;;;18.60;99.90;;;;;;5025810;28;20080;-75
2022/09/06 02:48:11;;;;;;;8.75;7.88;;;18.60;99.90;;;;;;5039513;28;20038;-75
2022/09/06 02:50:37;;;;;;;9.30;8.40;;;18.60;99.90;;;;;;5008360;28;20076;-75
2022/09/06 02:53:08;;;;;;;8.27;7.43;;;18.60;99.90;;;;;;5011605;28;20115;-75
2022/09/06 02:55:34;;;;;;;8.05;7.25;;;18.50;99.90;;;;;;5022755;28;20058;-75
2022/09/06 02:58:00;;;;;;;9.32;8.32;;;18.50;99.90;;;;;;5023800;28;20073;-75
2022/09/06 03:00:27;;;;;;;9.18;8.15;;;18.40;99.90;;;;;;5008492;28;20054;-75
2022/09/06 03:02:54;;;;;;;13.43;8.07;;;18.40;99.90;;;;;;5023198;28;20501;-75
2022/09/06 03:05:21;;;;;;;8.75;7.55;;;18.30;99.90;;;;;;5006821;28;20057;-75
2022/09/06 03:07:47;;;;;;;11.75;8.52;;;18.20;99.90;;;;;;5023390;28;20058;-75
2022/09/06 03:10:13;;;;;;;9.27;8.38;;;18.30;99.90;;;;;;5009852;28;20046;-75
2022/09/06 03:12:40;;;;;;;11.27;9.13;;;18.20;99.90;;;;;;4985013;28;20823;-75
2022/09/06 03:15:06;;;;;;;10.50;9.02;;;18.30;99.90;;;;;;5028719;28;20042;-74
2022/09/06 03:17:32;;;;;;;10.70;9.23;;;18.40;99.90;;;;;;5026881;28;20047;-74
2022/09/06 03:19:58;;;;;;;13.98;10.07;;;18.40;99.90;;;;;;5011312;28;20057;-75
2022/09/06 03:22:23;;;;;;;10.38;9.35;;;18.40;99.90;;;;;;5044430;28;20046;-75
2022/09/06 03:24:49;;;;;;;10.20;8.73;;;18.40;99.90;;;;;;5025253;28;20076;-75
2022/09/06 03:27:15;;;;;;;10.23;9.32;;;18.30;99.90;;;;;;5008550;28;20038;-75
2022/09/06 03:29:40;;;;;;;10.48;9.23;;;18.30;99.90;;;;;;5019876;28;20045;-75
2022/09/06 03:32:06;;;;;;;10.25;9.20;;;18.30;99.90;;;;;;5025543;28;20053;-75
2022/09/06 03:34:32;;;;;;;16.98;10.15;;;18.20;99.90;;;;;;5004749;28;20050;-74
2022/09/06 03:36:57;;;;;;;10.65;9.63;;;18.10;99.90;;;;;;4998133;28;20057;-75
2022/09/06 03:39:23;;;;;;;10.18;9.18;;;18.20;99.90;;;;;;5025497;28;20045;-74
2022/09/06 03:41:49;;;;;;;16.48;10.32;;;18.20;99.90;;;;;;5011443;28;20049;-75
2022/09/06 03:44:14;;;;;;;469.70;43.78;;;18.20;99.90;;;;;;5005326;28;20054;-75
2022/09/06 03:46:40;;;;;;;87.97;16.10;;;18.20;99.90;;;;;;5030030;28;20068;-75
2022/09/06 03:49:06;;;;;;;22.55;11.48;;;18.20;99.90;;;;;;5006895;28;20053;-74
2022/09/06 03:51:32;;;;;;;16.13;10.43;;;18.20;99.90;;;;;;5005476;28;20106;-75
2022/09/06 03:53:58;;;;;;;11.73;10.52;;;18.10;99.90;;;;;;4962515;28;20058;-74
2022/09/06 03:56:23;;;;;;;10.60;9.57;;;18.20;99.90;;;;;;5011626;28;20076;-74
2022/09/06 03:58:49;;;;;;;12.07;10.20;;;18.20;99.90;;;;;;5007558;28;20046;-75
2022/09/06 04:01:15;;;;;;;10.77;9.70;;;18.20;99.90;;;;;;5042088;28;20057;-74
2022/09/06 04:03:40;;;;;;;14.00;10.25;;;18.20;99.90;;;;;;5026189;28;20129;-75
2022/09/06 04:06:07;;;;;;;10.40;9.30;;;18.20;99.90;;;;;;5027770;28;20052;-75
2022/09/06 04:08:34;;;;;;;11.88;10.65;;;18.20;99.90;;;;;;5025994;28;20038;-75
2022/09/06 04:10:59;;;;;;;12.10;9.63;;;18.20;99.90;;;;;;5020624;28;20049;-74
2022/09/06 04:13:27;;;;;;;11.07;9.82;;;18.20;99.90;;;;;;5018353;28;20111;-75
2022/09/06 04:15:53;;;;;;;10.68;9.55;;;18.20;99.90;;;;;;5000970;28;20098;-75
2022/09/06 04:18:19;;;;;;;11.43;10.30;;;18.20;99.90;;;;;;5011540;28;20105;-75
2022/09/06 04:20:50;;;;;;;11.18;10.07;;;18.20;99.90;;;;;;5011027;28;20077;-75
2022/09/06 04:23:17;;;;;;;10.57;9.48;;;18.20;99.90;;;;;;5010620;28;20038;-74
2022/09/06 04:25:50;;;;;;;11.98;10.75;;;18.10;99.90;;;;;;5030646;28;20106;-75
2022/09/06 04:28:17;;;;;;;11.43;10.32;;;18.10;99.90;;;;;;5044595;28;20056;-75
2022/09/06 04:30:44;;;;;;;13.60;11.15;;;18.10;99.90;;;;;;5041874;28;20054;-75
2022/09/06 04:33:11;;;;;;;12.98;11.27;;;18.20;99.90;;;;;;5030523;28;20053;-75
2022/09/06 04:35:37;;;;;;;11.93;10.02;;;18.20;99.90;;;;;;5026552;28;20791;-75
2022/09/06 04:38:03;;;;;;;10.68;9.63;;;18.20;99.90;;;;;;5013050;28;20042;-75
2022/09/06 04:40:29;;;;;;;11.43;10.23;;;18.20;99.90;;;;;;5001906;28;20526;-75
2022/09/06 04:42:54;;;;;;;10.75;9.65;;;18.20;99.90;;;;;;5009691;28;20044;-74
2022/09/06 04:45:20;;;;;;;10.05;9.05;;;18.20;99.90;;;;;;5013230;28;20053;-75
2022/09/06 04:47:46;;;;;;;10.77;9.68;;;18.10;99.90;;;;;;5025626;28;20045;-74
2022/09/06 04:50:11;;;;;;;14.05;10.27;;;18.10;99.90;;;;;;5010589;28;20050;-75
2022/09/06 04:52:37;;;;;;;12.68;10.73;;;18.10;99.90;;;;;;5009228;28;20064;-75
2022/09/06 04:55:04;;;;;;;12.82;9.80;;;18.10;99.90;;;;;;4994219;28;20070;-75
2022/09/06 04:57:29;;;;;;;11.88;10.73;;;18.10;99.90;;;;;;5019267;28;20460;-75
2022/09/06 04:59:55;;;;;;;11.75;10.57;;;18.20;99.90;;;;;;5021834;28;20109;-75
2022/09/06 05:02:21;;;;;;;12.13;10.88;;;18.20;99.90;;;;;;4995097;28;20136;-75
2022/09/06 05:04:46;;;;;;;12.10;10.90;;;18.30;99.90;;;;;;4991553;28;20111;-75
2022/09/06 05:07:13;;;;;;;11.13;9.45;;;18.30;99.90;;;;;;5010758;28;20042;-72
2022/09/06 05:09:38;;;;;;;15.75;10.25;;;18.30;99.90;;;;;;5042210;28;20054;-71
2022/09/06 05:12:04;;;;;;;12.30;11.15;;;18.30;99.90;;;;;;4991058;28;20038;-71
2022/09/06 05:14:30;;;;;;;12.25;11.00;;;18.40;99.90;;;;;;5023323;28;20072;-70
2022/09/06 05:16:56;;;;;;;13.02;10.30;;;18.30;99.90;;;;;;5005769;28;20170;-71
2022/09/06 05:19:22;;;;;;;12.13;10.65;;;18.40;99.90;;;;;;5012793;28;20057;-72
2022/09/06 05:21:50;;;;;;;15.25;11.27;;;18.50;99.90;;;;;;5024441;28;20101;-73
2022/09/06 05:24:15;;;;;;;12.20;11.10;;;18.60;99.90;;;;;;5013507;28;20042;-73
2022/09/06 05:26:41;;;;;;;13.55;12.13;;;18.60;99.90;;;;;;5018667;28;20486;-72
2022/09/06 05:29:07;;;;;;;17.02;11.75;;;18.60;99.90;;;;;;5007828;28;20254;-73
2022/09/06 05:31:33;;;;;;;15.10;11.95;;;18.60;99.90;;;;;;5009392;28;20061;-73
2022/09/06 05:33:59;;;;;;;14.57;11.25;;;18.60;99.90;;;;;;5049400;28;20037;-73
2022/09/06 05:36:26;;;;;;;15.80;12.25;;;18.50;99.90;;;;;;5037177;28;20120;-72
2022/09/06 05:38:53;;;;;;;13.23;11.38;;;18.50;99.90;;;;;;5006839;28;20042;-75
2022/09/06 05:41:20;;;;;;;13.32;11.93;;;18.40;99.90;;;;;;5015408;28;20567;-76
2022/09/06 05:43:46;;;;;;;14.40;12.93;;;18.40;99.90;;;;;;5014004;28;20053;-76
2022/09/06 05:46:12;;;;;;;14.27;12.77;;;18.40;99.90;;;;;;5007773;28;20058;-77
2022/09/06 05:48:38;;;;;;;17.63;13.45;;;18.40;99.90;;;;;;5006865;28;20053;-77
2022/09/06 05:51:11;;;;;;;14.35;12.95;;;18.40;99.90;;;;;;4996829;28;20047;-77
2022/09/06 05:53:39;;;;;;;14.90;13.52;;;18.40;99.90;;;;;;5037201;28;20038;-76
2022/09/06 05:56:06;;;;;;;13.32;12.02;;;18.50;99.90;;;;;;5010256;28;20060;-77
2022/09/06 05:58:32;;;;;;;13.60;12.20;;;18.50;99.90;;;;;;4999848;28;20099;-76
2022/09/06 06:01:07;;;;;;;15.07;13.18;;;18.50;99.90;;;;;;4972209;28;20057;-78
2022/09/06 06:03:33;;;;;;;15.10;13.18;;;18.60;99.90;;;;;;5023843;28;20571;-77
2022/09/06 06:05:59;;;;;;;14.65;13.35;;;18.60;99.90;;;;;;5014250;28;20049;-78
2022/09/06 06:08:24;;;;;;;14.77;13.27;;;18.60;99.90;;;;;;4992277;28;20042;-78
2022/09/06 06:10:50;;;;;;;14.68;13.18;;;18.60;99.90;;;;;;5011116;28;20048;-78
2022/09/06 06:13:15;;;;;;;20.42;15.25;;;18.60;99.90;;;;;;5022992;28;20045;-76
2022/09/06 06:15:41;;;;;;;15.07;13.48;;;18.60;99.90;;;;;;5031125;28;20065;-76
2022/09/06 06:18:07;;;;;;;19.85;14.68;;;18.70;99.90;;;;;;4987573;28;20034;-76
2022/09/06 06:20:32;;;;;;;16.23;14.52;;;18.60;99.90;;;;;;4983261;28;20061;-79
2022/09/06 06:22:58;;;;;;;15.00;13.50;;;18.70;99.90;;;;;;5029868;28;20248;-78
2022/09/06 06:25:25;;;;;;;15.25;13.73;;;18.70;99.90;;;;;;5001661;28;20061;-77
2022/09/06 06:27:53;;;;;;;19.77;14.30;;;18.80;99.90;;;;;;5017425;28;20098;-78
2022/09/06 06:30:19;;;;;;;15.43;13.68;;;18.80;99.90;;;;;;5030509;28;20054;-80
2022/09/06 06:32:45;;;;;;;15.55;14.13;;;18.80;99.90;;;;;;5018582;28;20081;-74
2022/09/06 06:35:11;;;;;;;16.17;14.52;;;18.80;99.90;;;;;;5009766;28;20050;-75
2022/09/06 06:37:37;;;;;;;16.23;14.63;;;18.80;99.90;;;;;;5002189;28;20130;-74
2022/09/06 06:40:04;;;;;;;17.30;14.48;;;18.90;99.90;;;;;;5003191;28;20061;-75
2022/09/06 06:42:30;;;;;;;18.30;15.43;;;18.90;99.90;;;;;;5041699;28;20050;-81
2022/09/06 06:44:55;;;;;;;16.77;14.13;;;18.90;99.90;;;;;;4995150;28;20098;-75
2022/09/06 06:47:21;;;;;;;15.57;13.75;;;18.90;99.90;;;;;;5035265;28;20128;-73
2022/09/06 06:49:47;;;;;;;15.68;14.18;;;19.00;99.90;;;;;;5016726;28;20049;-74
2022/09/06 06:52:13;;;;;;;23.10;16.13;;;19.00;99.90;;;;;;5015671;28;20046;-69
2022/09/06 06:54:40;;;;;;;15.88;14.40;;;19.10;99.90;;;;;;5029599;28;20058;-70
2022/09/06 06:57:08;;;;;;;16.65;14.88;;;19.10;99.90;;;;;;5027129;28;20064;-70
2022/09/06 06:59:34;;;;;;;16.10;14.38;;;19.20;99.90;;;;;;5010470;28;20053;-71
2022/09/06 07:02:00;;;;;;;17.90;15.90;;;19.20;99.90;;;;;;5015976;28;20049;-71
2022/09/06 07:04:26;;;;;;;17.80;15.77;;;19.20;99.90;;;;;;5010430;28;20049;-71
2022/09/06 07:06:53;;;;;;;18.15;16.33;;;19.20;99.90;;;;;;5010460;28;20116;-71
2022/09/06 07:09:20;;;;;;;17.83;16.00;;;19.30;99.90;;;;;;5013128;28;20046;-67
2022/09/06 07:11:47;;;;;;;17.17;15.57;;;19.30;99.90;;;;;;5012866;28;20061;-70
2022/09/06 07:14:14;;;;;;;17.10;15.27;;;19.40;99.90;;;;;;5011464;28;20044;-70
2022/09/06 07:16:40;;;;;;;17.25;15.68;;;19.40;99.90;;;;;;5010591;28;20053;-69
2022/09/06 07:19:06;;;;;;;16.90;14.82;;;19.40;99.90;;;;;;4998968;28;20081;-71
2022/09/06 07:21:32;;;;;;;19.70;16.00;;;19.40;99.90;;;;;;5035026;28;20056;-71
2022/09/06 07:23:58;;;;;;;18.10;16.40;;;19.50;99.90;;;;;;5028745;28;20073;-71
2022/09/06 07:26:26;;;;;;;18.73;16.73;;;19.50;99.90;;;;;;4999919;28;20046;-71
2022/09/06 07:28:57;;;;;;;19.02;17.10;;;19.50;99.90;;;;;;5019110;28;20184;-71
2022/09/06 07:31:24;;;;;;;17.63;15.77;;;19.50;99.90;;;;;;5015128;28;20050;-71
2022/09/06 07:33:50;;;;;;;17.83;15.93;;;19.50;99.90;;;;;;5020875;28;20042;-71
2022/09/06 07:36:16;;;;;;;18.65;16.75;;;19.50;99.90;;;;;;4995580;28;20054;-71
2022/09/06 07:38:42;;;;;;;18.60;16.67;;;19.50;99.90;;;;;;5039032;28;20160;-71
2022/09/06 07:41:09;;;;;;;19.15;17.13;;;19.60;99.90;;;;;;5013398;28;20180;-69
2022/09/06 07:43:35;;;;;;;18.52;16.67;;;19.50;99.90;;;;;;5017796;28;20046;-70
2022/09/06 07:46:03;;;;;;;19.90;16.65;;;19.50;99.90;;;;;;5024367;28;20054;-69
2022/09/06 07:48:31;;;;;;;19.58;17.60;;;19.50;99.90;;;;;;5037754;28;20042;-68
2022/09/06 07:51:17;;;;;;;20.33;17.17;;;19.50;99.90;;;;;;4993432;28;20053;-68
2022/09/06 07:53:49;;;;;;;21.30;18.02;;;19.60;99.90;;;;;;5005726;28;20053;-69
2022/09/06 07:56:15;;;;;;;20.33;18.20;;;19.60;99.90;;;;;;5028676;28;20134;-68
2022/09/06 07:58:41;;;;;;;19.38;17.48;;;19.70;99.90;;;;;;5013855;28;20585;-69
2022/09/06 08:01:33;;;;;;;19.65;17.63;;;19.70;99.90;;;;;;4986514;28;20085;-68
2022/09/06 08:04:17;;;;;;;19.63;17.55;;;19.80;99.90;;;;;;5012912;28;20084;-69
2022/09/06 08:06:47;;;;;;;20.73;16.95;;;19.90;99.90;;;;;;5007885;28;20053;-68
2022/09/06 08:09:13;;;;;;;22.92;18.02;;;20.00;99.90;;;;;;5010620;28;20042;-68
2022/09/06 08:11:39;;;;;;;19.38;17.38;;;20.10;99.90;;;;;;5037334;28;20052;-68
2022/09/06 08:14:07;;;;;;;21.42;18.88;;;20.20;99.90;;;;;;5007236;28;20049;-69
2022/09/06 08:16:34;;;;;;;17.92;16.13;;;20.20;99.90;;;;;;5025121;28;20072;-68
2022/09/06 08:19:03;;;;;;;19.67;17.73;;;20.30;99.90;;;;;;5007083;28;20382;-69
2022/09/06 08:21:31;;;;;;;19.75;17.70;;;20.40;99.90;;;;;;5017477;28;20061;-70
2022/09/06 08:23:59;;;;;;;21.80;17.95;;;20.50;99.90;;;;;;5025901;28;20107;-69
2022/09/06 08:26:27;;;;;;;18.48;16.50;;;20.50;99.90;;;;;;5022549;28;20060;-69
2022/09/06 08:28:54;;;;;;;18.77;16.65;;;20.60;99.90;;;;;;5023877;28;20081;-69
2022/09/06 08:31:20;;;;;;;18.13;16.23;;;20.70;99.90;;;;;;4996083;28;20049;-69
2022/09/06 08:33:46;;;;;;;17.45;15.65;;;20.80;99.90;;;;;;5043233;28;20092;-66
2022/09/06 08:36:13;;;;;;;20.15;16.63;;;20.90;99.90;;;;;;5007919;28;20057;-69
2022/09/06 08:38:39;;;;;;;17.70;16.02;;;21.00;99.90;;;;;;5014613;28;20050;-67
2022/09/06 08:41:20;;;;;;;18.65;16.60;;;21.00;99.90;;;;;;5008529;28;20541;-71
2022/09/06 08:44:09;;;;;;;18.02;16.17;;;21.10;99.90;;;;;;5010872;28;20080;-70
2022/09/06 08:47:04;;;;;;;17.98;16.25;;;21.10;99.90;;;;;;5011600;28;20080;-70
2022/09/06 08:49:34;;;;;;;18.15;15.30;;;21.20;99.90;;;;;;5028943;28;20136;-70
2022/09/06 08:52:17;;;;;;;17.27;15.10;;;21.30;99.90;;;;;;5013512;28;20060;-70
2022/09/06 08:55:05;;;;;;;19.92;17.27;;;21.30;99.90;;;;;;5040983;28;20050;-70
2022/09/06 08:58:13;;;;;;;16.48;14.85;;;21.40;99.90;;;;;;5019481;28;20104;-70
2022/09/06 09:00:45;;;;;;;18.30;15.07;;;21.50;99.90;;;;;;4991395;28;20074;-69
2022/09/06 09:03:16;;;;;;;15.35;13.82;;;21.70;99.90;;;;;;5022802;28;20074;-69
2022/09/06 09:05:45;;;;;;;17.92;14.25;;;21.80;99.90;;;;;;5028344;28;20052;-69
2022/09/06 09:08:14;;;;;;;15.02;13.43;;;22.00;99.90;;;;;;5022608;28;20076;-69
2022/09/06 09:10:43;;;;;;;15.48;13.88;;;22.20;99.90;;;;;;5007190;28;20065;-69
2022/09/06 09:13:14;;;;;;;;;;;22.40;99.90;;;;;;5003638;28;20050;-69
2022/09/06 09:15:40;;;;;;;16.40;14.77;;;22.50;99.90;;;;;;5033243;28;19937;-69
2022/09/06 09:18:06;;;;;;;17.25;14.70;;;22.70;99.90;;;;;;4976173;28;20046;-70
2022/09/06 09:20:32;;;;;;;17.50;15.70;;;22.70;99.90;;;;;;4968740;28;20043;-70
2022/09/06 09:22:57;;;;;;;14.90;13.40;;;22.80;99.90;;;;;;5014713;28;20056;-70
2022/09/06 09:25:24;;;;;;;16.00;14.32;;;22.80;99.90;;;;;;5019909;28;20053;-71
2022/09/06 09:27:57;;;;;;;14.10;12.65;;;22.80;99.90;;;;;;5022766;28;20057;-68
2022/09/06 09:30:25;;;;;;;15.55;13.13;;;22.80;99.90;;;;;;5000305;28;20066;-69
2022/09/06 09:32:51;;;;;;;17.90;13.35;;;22.80;99.90;;;;;;4981395;28;20047;-69
2022/09/06 09:35:31;;;;;;;16.70;14.40;;;22.80;99.90;;;;;;4988469;28;20046;-69
2022/09/06 09:38:01;;;;;;;;;;;22.80;99.90;;;;;;4962754;28;20051;-69
2022/09/06 09:40:28;;;;;;;16.13;14.45;;;22.80;99.90;;;;;;4982502;28;20536;-72
2022/09/06 09:43:08;;;;;;;14.27;12.25;;;22.80;99.90;;;;;;4998213;28;20120;-70
2022/09/06 09:45:33;;;;;;;14.55;12.52;;;22.80;99.90;;;;;;4971782;28;20047;-70
2022/09/06 09:48:20;;;;;;;14.48;13.02;;;22.80;99.90;;;;;;4998122;28;20065;-70
2022/09/06 09:50:45;;;;;;;16.23;13.73;;;22.90;99.90;;;;;;4990249;28;20038;-69
2022/09/06 09:53:14;;;;;;;15.52;13.93;;;22.90;99.90;;;;;;5014357;28;20616;-69
2022/09/06 09:55:41;;;;;;;15.73;14.10;;;22.90;99.90;;;;;;4996767;28;20129;-70
2022/09/06 09:58:20;;;;;;;16.27;13.25;;;22.90;99.90;;;;;;5022154;28;20366;-70
2022/09/06 10:00:46;;;;;;;16.10;14.40;;;23.00;99.90;;;;;;4981051;28;20085;-68
2022/09/06 10:03:15;;;;;;;15.77;12.30;;;23.00;99.90;;;;;;4987880;28;20597;-67
2022/09/06 10:05:41;;;;;;;16.52;12.68;;;23.10;99.90;;;;;;4983619;28;20060;-68
2022/09/06 10:08:11;;;;;;;15.82;12.40;;;23.10;99.90;;;;;;4976156;28;20066;-66
2022/09/06 10:10:45;;;;;;;13.35;11.90;;;23.20;99.90;;;;;;4990222;28;20042;-67
2022/09/06 10:13:28;;;;;;;15.88;12.23;;;23.30;99.90;;;;;;4995466;28;20057;-67
2022/09/06 10:15:54;;;;;;;13.05;11.57;;;23.40;99.90;;;;;;4971242;28;20042;-68
2022/09/06 10:18:19;;;;;;;12.98;11.48;;;23.50;99.90;;;;;;4974653;28;20054;-67
2022/09/06 10:21:08;;;;;;;14.40;11.48;;;23.50;99.90;;;;;;4974028;28;20572;-69
2022/09/06 10:24:01;;;;;;;13.55;11.88;;;23.50;99.90;;;;;;5006489;28;20053;-67
2022/09/06 10:26:54;;;;;;;10.07;8.25;;;23.60;99.90;;;;;;4970685;28;20108;-67
2022/09/06 10:29:46;;;;;;;14.18;12.75;;;23.70;99.90;;;;;;4991894;28;20104;-69
2022/09/06 10:32:47;;;;;;;12.35;11.05;;;23.70;99.90;;;;;;5006837;28;20073;-66
2022/09/06 10:35:22;;;;;;;11.05;9.70;;;23.80;99.90;;;;;;4993393;28;20058;-70
2022/09/06 10:38:00;;;;;;;12.93;11.48;;;23.70;99.90;;;;;;4982671;28;20152;-68
2022/09/06 10:40:36;;;;;;;11.10;10.00;;;23.80;99.90;;;;;;4999284;28;20038;-68
2022/09/06 10:43:04;;;;;;;11.63;9.55;;;23.80;99.90;;;;;;4983822;28;20050;-68
2022/09/06 10:45:57;;;;;;;10.63;9.50;;;23.90;99.90;;;;;;5000844;28;20046;-68
2022/09/06 10:48:34;;;;;;;11.15;10.07;;;23.90;99.90;;;;;;4957102;28;20067;-68
2022/09/06 10:51:32;;;;;;;9.95;8.45;;;24.00;99.90;;;;;;4972361;28;20112;-69
2022/09/06 10:54:19;;;;;;;14.77;9.40;;;24.10;99.90;;;;;;4988414;28;20134;-69
2022/09/06 10:57:15;;;;;;;9.43;8.13;;;24.10;99.90;;;;;;4975303;28;20088;-69
2022/09/06 10:59:54;;;;;;;9.15;7.95;;;24.20;99.90;;;;;;4994155;28;20038;-68
2022/09/06 11:02:39;;;;;;;9.88;8.88;;;24.30;99.90;;;;;;4985282;28;20059;-69
2022/09/06 11:05:11;;;;;;;9.32;8.30;;;24.30;99.90;;;;;;5004262;28;20054;-69
2022/09/06 11:07:42;;;;;;;11.40;8.63;;;24.40;99.90;;;;;;5005070;28;20103;-69
2022/09/06 11:10:19;;;;;;;8.73;7.85;;;24.50;99.90;;;;;;4998356;28;20054;-69
2022/09/06 11:13:27;;;;;;;8.90;7.50;;;24.60;99.90;;;;;;5005569;28;20058;-69
2022/09/06 11:16:24;;;;;;;8.38;7.57;;;24.60;99.90;;;;;;4976961;28;20055;-69
2022/09/06 11:19:12;;;;;;;11.15;6.70;;;24.60;99.90;;;;;;4982008;28;20076;-69
2022/09/06 11:22:07;;;;;;;9.73;7.90;;;24.90;99.90;;;;;;4994330;28;20054;-69
2022/09/06 11:25:14;;;;;;;7.65;6.78;;;25.20;99.60;;;;;;4991149;28;20047;-69
2022/09/06 11:27:45;;;;;;;10.48;7.03;;;25.00;99.90;;;;;;5002045;28;20121;-71
2022/09/06 11:30:16;;;;;;;10.77;7.80;;;24.90;99.90;;;;;;5004144;28;20053;-71
2022/09/06 11:32:48;;;;;;;7.80;6.80;;;25.00;99.90;;;;;;5008429;28;20047;-71
2022/09/06 11:35:33;;;;;;;8.38;7.03;;;25.40;98.70;;;;;;5002758;28;20050;-71
2022/09/06 11:38:14;;;;;;;10.02;6.95;;;25.30;99.50;;;;;;5007156;28;20161;-71
2022/09/06 11:40:46;;;;;;;8.15;6.50;;;25.20;99.90;;;;;;5018513;28;20749;-70
2022/09/06 11:43:34;;;;;;;13.48;7.65;;;25.30;99.90;;;;;;5026837;28;20133;-70
2022/09/06 11:46:00;;;;;;;9.02;7.78;;;25.30;99.90;;;;;;4997197;28;20050;-72
2022/09/06 11:48:27;;;;;;;8.35;6.53;;;25.40;99.30;;;;;;5020034;28;20046;-71
2022/09/06 11:50:53;;;;;;;7.50;6.18;;;25.70;97.50;;;;;;5015393;28;20544;-72
2022/09/06 11:53:20;;;;;;;8.57;6.13;;;25.60;98.40;;;;;;5019333;28;20050;-70
2022/09/06 11:55:58;;;;;;;7.15;6.15;;;25.60;98.60;;;;;;4997225;28;20056;-70
2022/09/06 11:58:48;;;;;;;6.63;5.93;;;25.60;98.10;;;;;;4998879;28;20632;-70
2022/09/06 12:01:17;;;;;;;7.85;5.97;;;25.60;97.70;;;;;;4994830;28;20054;-70
2022/09/06 12:03:52;;;;;;;7.55;5.85;;;25.60;97.80;;;;;;5034471;28;20053;-70
2022/09/06 12:06:26;;;;;;;7.35;6.38;;;25.60;98.60;;;;;;5004350;28;20073;-69
2022/09/06 12:08:54;;;;;;;8.60;6.63;;;25.70;98.00;;;;;;5024486;28;20042;-69
2022/09/06 12:11:28;;;;;;;7.00;6.00;;;25.70;98.10;;;;;;4979534;28;20161;-70
2022/09/06 12:14:04;;;;;;;8.48;5.88;;;25.80;97.80;;;;;;5002901;28;20054;-70
2022/09/06 12:16:54;;;;;;;5.30;4.78;;;26.10;96.00;;;;;;4991182;28;20050;-71
2022/09/06 12:19:42;;;;;;;7.85;6.03;;;26.00;96.10;;;;;;4999772;28;20098;-71
2022/09/06 12:22:40;;;;;;;6.47;5.25;;;26.00;96.90;;;;;;5016360;28;20069;-70
2022/09/06 12:25:33;;;;;;;6.30;5.13;;;26.00;96.80;;;;;;4993312;28;20050;-66
2022/09/06 12:28:04;;;;;;;8.18;5.05;;;26.00;96.00;;;;;;5006238;28;20053;-65
2022/09/06 12:30:42;;;;;;;5.40;4.90;;;26.10;96.30;;;;;;4997666;28;20064;-68
2022/09/06 12:33:29;;;;;;;4.97;4.47;;;26.20;96.10;;;;;;4999375;28;20057;-67
2022/09/06 12:36:31;;;;;;;6.00;4.63;;;26.40;95.10;;;;;;5015049;28;20085;-68
2022/09/06 12:39:10;;;;;;;7.80;5.07;;;26.40;95.80;;;;;;4997691;28;20050;-67
2022/09/06 12:41:46;;;;;;;5.50;4.68;;;26.30;96.10;;;;;;5006746;28;20053;-68
2022/09/06 12:44:14;;;;;;;5.95;4.90;;;26.40;95.60;;;;;;5007146;28;20057;-67
2022/09/06 12:46:48;;;;;;;5.95;3.90;;;26.50;95.60;;;;;;4996238;28;20496;-68
2022/09/06 12:49:18;;;;;;;6.15;4.82;;;26.70;95.10;;;;;;5001907;28;20046;-68
2022/09/06 12:51:44;;;;;;;5.90;4.78;;;26.80;94.60;;;;;;4998619;28;21832;-68
2022/09/06 12:54:25;;;;;;;4.85;4.35;;;27.00;93.40;;;;;;5006244;28;20050;-68
2022/09/06 12:56:52;;;;;;;5.93;4.22;;;26.90;94.10;;;;;;5012965;28;20057;-68